sensor_id;sensor_type;location;lat;lon;timestamp;temperature;humidity
26803;DHT22;14378;51.796;5.808;2023-08-31T00:01:21;12.90;99.90
26803;DHT22;14378;51.796;5.808;2023-08-31T00:03:22;12.90;99.90
26803;DHT22;14378;51.796;5.808;2023-08-31T00:05:36;12.90;99.90
26803;DHT22;14378;51.796;5.808;2023-08-31T00:07:37;12.80;99.90
26803;DHT22;14378;51.796;5.808;2023-08-31T00:09:38;12.80;99.90
26803;DHT22;14378;51.796;5.808;2023-08-31T00:11:41;12.80;99.90
26803;DHT22;14378;51.796;5.808;2023-08-31T00:13:49;12.80;99.90
26803;DHT22;14378;51.796;5.808;2023-08-31T00:15:57;12.80;99.90
26803;DHT22;14378;51.796;5.808;2023-08-31T00:17:58;12.80;99.90
26803;DHT22;14378;51.796;5.808;2023-08-31T00:19:59;12.70;99.90
26803;DHT22;14378;51.796;5.808;2023-08-31T00:22:01;12.60;99.90
26803;DHT22;14378;51.796;5.808;2023-08-31T00:24:02;12.70;99.90
26803;DHT22;14378;51.796;5.808;2023-08-31T00:26:09;12.70;99.90
26803;DHT22;14378;51.796;5.808;2023-08-31T00:28:10;12.70;99.90
26803;DHT22;14378;51.796;5.808;2023-08-31T00:30:12;12.60;99.90
26803;DHT22;14378;51.796;5.808;2023-08-31T00:32:15;12.70;99.90
26803;DHT22;14378;51.796;5.808;2023-08-31T00:34:16;12.70;99.90
26803;DHT22;14378;51.796;5.808;2023-08-31T00:36:18;12.60;99.90
26803;DHT22;14378;51.796;5.808;2023-08-31T00:38:19;12.60;99.90
26803;DHT22;14378;51.796;5.808;2023-08-31T00:40:20;12.60;99.90
26803;DHT22;14378;51.796;5.808;2023-08-31T00:42:21;12.60;99.90
26803;DHT22;14378;51.796;5.808;2023-08-31T00:44:22;12.60;99.90
26803;DHT22;14378;51.796;5.808;2023-08-31T00:46:29;12.60;99.90
26803;DHT22;14378;51.796;5.808;2023-08-31T00:48:30;12.50;99.90
26803;DHT22;14378;51.796;5.808;2023-08-31T00:50:31;12.50;99.90
26803;DHT22;14378;51.796;5.808;2023-08-31T00:52:32;12.50;99.90
26803;DHT22;14378;51.796;5.808;2023-08-31T00:54:34;12.50;99.90
26803;DHT22;14378;51.796;5.808;2023-08-31T00:56:35;12.50;99.90
26803;DHT22;14378;51.796;5.808;2023-08-31T00:58:42;12.50;99.90
26803;DHT22;14378;51.796;5.808;2023-08-31T01:00:53;12.50;99.90
26803;DHT22;14378;51.796;5.808;2023-08-31T01:05:00;12.40;99.90
26803;DHT22;14378;51.796;5.808;2023-08-31T01:14:16;12.40;99.90
26803;DHT22;14378;51.796;5.808;2023-08-31T01:16:19;12.40;99.90
26803;DHT22;14378;51.796;5.808;2023-08-31T01:18:33;12.40;99.90
26803;DHT22;14378;51.796;5.808;2023-08-31T01:22:57;12.40;99.90
26803;DHT22;14378;51.796;5.808;2023-08-31T01:24:59;12.30;99.90
26803;DHT22;14378;51.796;5.808;2023-08-31T01:27:05;12.30;99.90
26803;DHT22;14378;51.796;5.808;2023-08-31T01:29:06;12.40;99.90
26803;DHT22;14378;51.796;5.808;2023-08-31T01:31:07;12.40;99.90
26803;DHT22;14378;51.796;5.808;2023-08-31T01:33:08;12.40;99.90
26803;DHT22;14378;51.796;5.808;2023-08-31T01:35:09;12.40;99.90
26803;DHT22;14378;51.796;5.808;2023-08-31T01:37:33;12.40;99.90
26803;DHT22;14378;51.796;5.808;2023-08-31T01:39:58;12.40;99.90
26803;DHT22;14378;51.796;5.808;2023-08-31T01:42:03;12.50;99.90
26803;DHT22;14378;51.796;5.808;2023-08-31T01:44:06;12.50;99.90
26803;DHT22;14378;51.796;5.808;2023-08-31T01:46:10;12.50;99.90
26803;DHT22;14378;51.796;5.808;2023-08-31T01:48:14;12.50;99.90
26803;DHT22;14378;51.796;5.808;2023-08-31T01:50:15;12.50;99.90
26803;DHT22;14378;51.796;5.808;2023-08-31T01:52:17;12.60;99.90
26803;DHT22;14378;51.796;5.808;2023-08-31T01:54:18;12.60;99.90
26803;DHT22;14378;51.796;5.808;2023-08-31T01:56:21;12.60;99.90
26803;DHT22;14378;51.796;5.808;2023-08-31T01:58:22;12.60;99.90
26803;DHT22;14378;51.796;5.808;2023-08-31T02:00:24;12.60;99.90
26803;DHT22;14378;51.796;5.808;2023-08-31T02:02:26;12.70;99.90
26803;DHT22;14378;51.796;5.808;2023-08-31T02:04:30;12.70;99.90
26803;DHT22;14378;51.796;5.808;2023-08-31T02:06:31;12.70;99.90
26803;DHT22;14378;51.796;5.808;2023-08-31T02:08:32;12.80;99.90
26803;DHT22;14378;51.796;5.808;2023-08-31T02:10:33;12.80;99.90
26803;DHT22;14378;51.796;5.808;2023-08-31T02:12:34;12.80;99.90
26803;DHT22;14378;51.796;5.808;2023-08-31T02:14:36;12.80;99.90
26803;DHT22;14378;51.796;5.808;2023-08-31T02:16:38;12.80;99.90
26803;DHT22;14378;51.796;5.808;2023-08-31T02:18:39;12.80;99.90
26803;DHT22;14378;51.796;5.808;2023-08-31T02:20:40;12.90;99.90
26803;DHT22;14378;51.796;5.808;2023-08-31T02:22:41;12.90;99.90
26803;DHT22;14378;51.796;5.808;2023-08-31T02:24:42;12.90;99.90
26803;DHT22;14378;51.796;5.808;2023-08-31T02:26:43;13.00;99.90
26803;DHT22;14378;51.796;5.808;2023-08-31T02:28:49;13.00;99.90
26803;DHT22;14378;51.796;5.808;2023-08-31T02:31:02;13.00;99.90
26803;DHT22;14378;51.796;5.808;2023-08-31T02:33:05;13.00;99.90
26803;DHT22;14378;51.796;5.808;2023-08-31T02:35:06;13.00;99.90
26803;DHT22;14378;51.796;5.808;2023-08-31T02:37:15;13.00;99.90
26803;DHT22;14378;51.796;5.808;2023-08-31T02:39:16;13.10;99.90
26803;DHT22;14378;51.796;5.808;2023-08-31T02:41:19;13.10;99.90
26803;DHT22;14378;51.796;5.808;2023-08-31T02:43:21;13.10;99.90
26803;DHT22;14378;51.796;5.808;2023-08-31T02:45:23;13.10;99.90
26803;DHT22;14378;51.796;5.808;2023-08-31T02:47:25;13.10;99.90
26803;DHT22;14378;51.796;5.808;2023-08-31T02:49:26;13.20;99.90
26803;DHT22;14378;51.796;5.808;2023-08-31T02:51:30;13.20;99.90
26803;DHT22;14378;51.796;5.808;2023-08-31T02:53:30;13.20;99.90
26803;DHT22;14378;51.796;5.808;2023-08-31T02:55:34;13.20;99.90
26803;DHT22;14378;51.796;5.808;2023-08-31T02:57:35;13.20;99.90
26803;DHT22;14378;51.796;5.808;2023-08-31T02:59:38;13.20;99.90
26803;DHT22;14378;51.796;5.808;2023-08-31T03:01:39;13.20;99.90
26803;DHT22;14378;51.796;5.808;2023-08-31T03:03:41;13.30;99.90
26803;DHT22;14378;51.796;5.808;2023-08-31T03:05:43;13.30;99.90
26803;DHT22;14378;51.796;5.808;2023-08-31T03:07:44;13.30;99.90
26803;DHT22;14378;51.796;5.808;2023-08-31T03:09:49;13.30;99.90
26803;DHT22;14378;51.796;5.808;2023-08-31T03:11:51;13.30;99.90
26803;DHT22;14378;51.796;5.808;2023-08-31T03:13:51;13.30;99.90
26803;DHT22;14378;51.796;5.808;2023-08-31T03:15:53;13.30;99.90
26803;DHT22;14378;51.796;5.808;2023-08-31T03:17:54;13.30;99.90
26803;DHT22;14378;51.796;5.808;2023-08-31T03:19:55;13.30;99.90
26803;DHT22;14378;51.796;5.808;2023-08-31T03:22:02;13.30;99.90
26803;DHT22;14378;51.796;5.808;2023-08-31T03:24:04;13.30;99.90
26803;DHT22;14378;51.796;5.808;2023-08-31T03:26:09;13.30;99.90
26803;DHT22;14378;51.796;5.808;2023-08-31T03:28:10;13.20;99.90
26803;DHT22;14378;51.796;5.808;2023-08-31T03:30:12;13.30;99.90
26803;DHT22;14378;51.796;5.808;2023-08-31T03:32:13;13.20;99.90
26803;DHT22;14378;51.796;5.808;2023-08-31T03:34:14;13.20;99.90
26803;DHT22;14378;51.796;5.808;2023-08-31T03:36:16;13.30;99.90
26803;DHT22;14378;51.796;5.808;2023-08-31T03:38:18;13.30;99.90
26803;DHT22;14378;51.796;5.808;2023-08-31T03:40:19;13.20;99.90
26803;DHT22;14378;51.796;5.808;2023-08-31T03:42:20;13.30;99.90
26803;DHT22;14378;51.796;5.808;2023-08-31T03:44:23;13.30;99.90
26803;DHT22;14378;51.796;5.808;2023-08-31T03:46:24;13.20;99.90
26803;DHT22;14378;51.796;5.808;2023-08-31T03:48:28;13.20;99.90
26803;DHT22;14378;51.796;5.808;2023-08-31T03:50:28;13.30;99.90
26803;DHT22;14378;51.796;5.808;2023-08-31T03:52:29;13.20;99.90
26803;DHT22;14378;51.796;5.808;2023-08-31T03:54:30;13.20;99.90
26803;DHT22;14378;51.796;5.808;2023-08-31T03:56:31;13.30;99.90
26803;DHT22;14378;51.796;5.808;2023-08-31T03:58:35;13.20;99.90
26803;DHT22;14378;51.796;5.808;2023-08-31T04:00:37;13.20;99.90
26803;DHT22;14378;51.796;5.808;2023-08-31T04:02:45;13.20;99.90
26803;DHT22;14378;51.796;5.808;2023-08-31T04:04:53;13.20;99.90
26803;DHT22;14378;51.796;5.808;2023-08-31T04:06:54;13.20;99.90
26803;DHT22;14378;51.796;5.808;2023-08-31T04:08:55;13.20;99.90
26803;DHT22;14378;51.796;5.808;2023-08-31T04:10:56;13.20;99.90
26803;DHT22;14378;51.796;5.808;2023-08-31T04:12:58;13.20;99.90
26803;DHT22;14378;51.796;5.808;2023-08-31T04:15:03;13.20;99.90
26803;DHT22;14378;51.796;5.808;2023-08-31T04:17:05;13.20;99.90
26803;DHT22;14378;51.796;5.808;2023-08-31T04:19:05;13.20;99.90
26803;DHT22;14378;51.796;5.808;2023-08-31T04:21:07;13.20;99.90
26803;DHT22;14378;51.796;5.808;2023-08-31T04:23:08;13.20;99.90
26803;DHT22;14378;51.796;5.808;2023-08-31T04:25:09;13.20;99.90
26803;DHT22;14378;51.796;5.808;2023-08-31T04:27:10;13.20;99.90
26803;DHT22;14378;51.796;5.808;2023-08-31T04:29:11;13.20;99.90
26803;DHT22;14378;51.796;5.808;2023-08-31T04:31:11;13.10;99.90
26803;DHT22;14378;51.796;5.808;2023-08-31T04:33:12;13.10;99.90
26803;DHT22;14378;51.796;5.808;2023-08-31T04:35:13;13.00;99.90
26803;DHT22;14378;51.796;5.808;2023-08-31T04:37:14;13.00;99.90
26803;DHT22;14378;51.796;5.808;2023-08-31T04:39:15;13.00;99.90
26803;DHT22;14378;51.796;5.808;2023-08-31T04:41:16;13.00;99.90
26803;DHT22;14378;51.796;5.808;2023-08-31T04:43:17;13.00;99.90
26803;DHT22;14378;51.796;5.808;2023-08-31T04:45:18;13.00;99.90
26803;DHT22;14378;51.796;5.808;2023-08-31T04:47:19;13.00;99.90
26803;DHT22;14378;51.796;5.808;2023-08-31T04:49:20;13.00;99.90
26803;DHT22;14378;51.796;5.808;2023-08-31T04:51:32;13.00;99.90
26803;DHT22;14378;51.796;5.808;2023-08-31T04:53:33;12.90;99.90
26803;DHT22;14378;51.796;5.808;2023-08-31T04:55:39;12.90;99.90
26803;DHT22;14378;51.796;5.808;2023-08-31T04:57:46;12.90;99.90
26803;DHT22;14378;51.796;5.808;2023-08-31T04:59:47;12.90;99.90
26803;DHT22;14378;51.796;5.808;2023-08-31T05:01:47;12.90;99.90
26803;DHT22;14378;51.796;5.808;2023-08-31T05:03:49;12.80;99.90
26803;DHT22;14378;51.796;5.808;2023-08-31T05:05:52;12.80;99.90
26803;DHT22;14378;51.796;5.808;2023-08-31T05:07:53;12.80;99.90
26803;DHT22;14378;51.796;5.808;2023-08-31T05:09:54;12.80;99.90
26803;DHT22;14378;51.796;5.808;2023-08-31T05:12:01;12.80;99.90
26803;DHT22;14378;51.796;5.808;2023-08-31T05:14:05;12.70;99.90
26803;DHT22;14378;51.796;5.808;2023-08-31T05:16:06;12.70;99.90
26803;DHT22;14378;51.796;5.808;2023-08-31T05:18:07;12.70;99.90
26803;DHT22;14378;51.796;5.808;2023-08-31T05:20:13;12.70;99.90
26803;DHT22;14378;51.796;5.808;2023-08-31T05:22:14;12.60;99.90
26803;DHT22;14378;51.796;5.808;2023-08-31T05:24:14;12.60;99.90
26803;DHT22;14378;51.796;5.808;2023-08-31T05:26:15;12.60;99.90
26803;DHT22;14378;51.796;5.808;2023-08-31T05:28:16;12.60;99.90
26803;DHT22;14378;51.796;5.808;2023-08-31T05:30:20;12.70;99.90
26803;DHT22;14378;51.796;5.808;2023-08-31T05:32:21;12.70;99.90
26803;DHT22;14378;51.796;5.808;2023-08-31T05:34:22;12.70;99.90
26803;DHT22;14378;51.796;5.808;2023-08-31T05:36:25;12.60;99.90
26803;DHT22;14378;51.796;5.808;2023-08-31T05:38:26;12.60;99.90
26803;DHT22;14378;51.796;5.808;2023-08-31T05:40:28;12.60;99.90
26803;DHT22;14378;51.796;5.808;2023-08-31T05:42:30;12.60;99.90
26803;DHT22;14378;51.796;5.808;2023-08-31T05:44:31;12.60;99.90
26803;DHT22;14378;51.796;5.808;2023-08-31T05:46:32;12.70;99.90
26803;DHT22;14378;51.796;5.808;2023-08-31T05:48:34;12.60;99.90
26803;DHT22;14378;51.796;5.808;2023-08-31T05:50:43;12.60;99.90
26803;DHT22;14378;51.796;5.808;2023-08-31T05:52:46;12.60;99.90
26803;DHT22;14378;51.796;5.808;2023-08-31T05:54:50;12.60;99.90
26803;DHT22;14378;51.796;5.808;2023-08-31T05:56:51;12.60;99.90
26803;DHT22;14378;51.796;5.808;2023-08-31T05:59:00;12.70;99.90
26803;DHT22;14378;51.796;5.808;2023-08-31T06:01:06;12.70;99.90
26803;DHT22;14378;51.796;5.808;2023-08-31T06:03:07;12.70;99.90
26803;DHT22;14378;51.796;5.808;2023-08-31T06:05:10;12.80;99.90
26803;DHT22;14378;51.796;5.808;2023-08-31T06:07:12;12.80;99.90
26803;DHT22;14378;51.796;5.808;2023-08-31T06:09:13;12.80;99.90
26803;DHT22;14378;51.796;5.808;2023-08-31T06:11:14;12.80;99.90
26803;DHT22;14378;51.796;5.808;2023-08-31T06:13:15;12.90;99.90
26803;DHT22;14378;51.796;5.808;2023-08-31T06:15:17;12.90;99.90
26803;DHT22;14378;51.796;5.808;2023-08-31T06:17:18;12.90;99.90
26803;DHT22;14378;51.796;5.808;2023-08-31T06:19:19;12.90;99.90
26803;DHT22;14378;51.796;5.808;2023-08-31T06:21:20;13.00;99.90
26803;DHT22;14378;51.796;5.808;2023-08-31T06:23:20;13.10;99.90
26803;DHT22;14378;51.796;5.808;2023-08-31T06:25:21;13.10;99.90
26803;DHT22;14378;51.796;5.808;2023-08-31T06:27:23;13.20;99.90
26803;DHT22;14378;51.796;5.808;2023-08-31T06:29:24;13.30;99.90
26803;DHT22;14378;51.796;5.808;2023-08-31T06:31:25;13.30;99.90
26803;DHT22;14378;51.796;5.808;2023-08-31T06:33:26;13.40;99.90
26803;DHT22;14378;51.796;5.808;2023-08-31T06:35:27;13.50;99.90
26803;DHT22;14378;51.796;5.808;2023-08-31T06:37:29;13.50;99.90
26803;DHT22;14378;51.796;5.808;2023-08-31T06:39:35;13.60;99.90
26803;DHT22;14378;51.796;5.808;2023-08-31T06:41:42;13.60;99.90
26803;DHT22;14378;51.796;5.808;2023-08-31T06:43:51;13.70;99.90
26803;DHT22;14378;51.796;5.808;2023-08-31T06:45:56;13.70;99.90
26803;DHT22;14378;51.796;5.808;2023-08-31T06:48:12;13.80;99.90
26803;DHT22;14378;51.796;5.808;2023-08-31T06:50:16;13.80;99.90
26803;DHT22;14378;51.796;5.808;2023-08-31T06:52:17;13.80;99.90
26803;DHT22;14378;51.796;5.808;2023-08-31T06:54:24;13.80;99.90
26803;DHT22;14378;51.796;5.808;2023-08-31T06:56:28;13.90;99.90
26803;DHT22;14378;51.796;5.808;2023-08-31T06:58:29;13.90;99.90
26803;DHT22;14378;51.796;5.808;2023-08-31T07:00:31;14.00;99.90
26803;DHT22;14378;51.796;5.808;2023-08-31T07:02:33;14.00;99.90
26803;DHT22;14378;51.796;5.808;2023-08-31T07:04:35;14.10;99.90
26803;DHT22;14378;51.796;5.808;2023-08-31T07:06:41;14.20;99.90
26803;DHT22;14378;51.796;5.808;2023-08-31T07:08:43;14.20;99.90
26803;DHT22;14378;51.796;5.808;2023-08-31T07:10:45;14.30;99.90
26803;DHT22;14378;51.796;5.808;2023-08-31T07:12:51;14.30;99.90
26803;DHT22;14378;51.796;5.808;2023-08-31T07:14:52;14.40;99.90
26803;DHT22;14378;51.796;5.808;2023-08-31T07:16:53;14.60;99.90
26803;DHT22;14378;51.796;5.808;2023-08-31T07:18:54;14.60;99.90
26803;DHT22;14378;51.796;5.808;2023-08-31T07:20:55;14.70;99.90
26803;DHT22;14378;51.796;5.808;2023-08-31T07:22:56;14.80;99.90
26803;DHT22;14378;51.796;5.808;2023-08-31T07:24:56;14.90;99.90
26803;DHT22;14378;51.796;5.808;2023-08-31T07:26:57;15.00;99.90
26803;DHT22;14378;51.796;5.808;2023-08-31T07:28:58;15.00;99.90
26803;DHT22;14378;51.796;5.808;2023-08-31T07:31:07;15.00;99.90
26803;DHT22;14378;51.796;5.808;2023-08-31T07:33:07;15.10;99.90
26803;DHT22;14378;51.796;5.808;2023-08-31T07:35:08;15.10;99.90
26803;DHT22;14378;51.796;5.808;2023-08-31T07:37:09;15.10;99.90
26803;DHT22;14378;51.796;5.808;2023-08-31T07:39:10;15.20;99.90
26803;DHT22;14378;51.796;5.808;2023-08-31T07:41:13;15.30;99.90
26803;DHT22;14378;51.796;5.808;2023-08-31T07:43:14;15.30;99.90
26803;DHT22;14378;51.796;5.808;2023-08-31T07:45:15;15.30;99.90
26803;DHT22;14378;51.796;5.808;2023-08-31T07:47:15;15.30;99.90
26803;DHT22;14378;51.796;5.808;2023-08-31T07:49:16;15.40;99.90
26803;DHT22;14378;51.796;5.808;2023-08-31T07:51:17;15.40;99.90
26803;DHT22;14378;51.796;5.808;2023-08-31T07:53:24;15.50;99.90
26803;DHT22;14378;51.796;5.808;2023-08-31T07:55:25;15.50;99.90
26803;DHT22;14378;51.796;5.808;2023-08-31T07:57:26;15.50;99.90
26803;DHT22;14378;51.796;5.808;2023-08-31T07:59:27;15.60;99.90
26803;DHT22;14378;51.796;5.808;2023-08-31T08:01:28;15.60;99.90
26803;DHT22;14378;51.796;5.808;2023-08-31T08:03:29;15.70;99.90
26803;DHT22;14378;51.796;5.808;2023-08-31T08:05:30;15.70;99.90
26803;DHT22;14378;51.796;5.808;2023-08-31T08:07:31;15.80;99.90
26803;DHT22;14378;51.796;5.808;2023-08-31T08:09:31;15.90;99.90
26803;DHT22;14378;51.796;5.808;2023-08-31T08:11:36;15.90;99.90
26803;DHT22;14378;51.796;5.808;2023-08-31T08:13:37;15.90;99.90
26803;DHT22;14378;51.796;5.808;2023-08-31T08:15:38;16.00;99.90
26803;DHT22;14378;51.796;5.808;2023-08-31T08:17:39;16.00;99.90
26803;DHT22;14378;51.796;5.808;2023-08-31T08:19:40;16.10;99.90
26803;DHT22;14378;51.796;5.808;2023-08-31T08:21:41;16.20;99.90
26803;DHT22;14378;51.796;5.808;2023-08-31T08:23:43;16.30;99.90
26803;DHT22;14378;51.796;5.808;2023-08-31T08:25:44;16.40;99.90
26803;DHT22;14378;51.796;5.808;2023-08-31T08:27:46;16.40;99.90
26803;DHT22;14378;51.796;5.808;2023-08-31T08:29:48;16.50;99.90
26803;DHT22;14378;51.796;5.808;2023-08-31T08:31:49;16.70;99.90
26803;DHT22;14378;51.796;5.808;2023-08-31T08:33:50;16.80;99.90
26803;DHT22;14378;51.796;5.808;2023-08-31T08:35:51;16.90;99.90
26803;DHT22;14378;51.796;5.808;2023-08-31T08:37:53;17.00;99.90
26803;DHT22;14378;51.796;5.808;2023-08-31T08:39:54;17.10;99.90
26803;DHT22;14378;51.796;5.808;2023-08-31T08:41:59;17.20;99.90
26803;DHT22;14378;51.796;5.808;2023-08-31T08:44:02;17.40;99.90
26803;DHT22;14378;51.796;5.808;2023-08-31T08:46:07;17.60;99.90
26803;DHT22;14378;51.796;5.808;2023-08-31T08:48:09;17.70;99.90
26803;DHT22;14378;51.796;5.808;2023-08-31T08:50:12;17.90;99.90
26803;DHT22;14378;51.796;5.808;2023-08-31T08:52:14;17.90;99.90
26803;DHT22;14378;51.796;5.808;2023-08-31T08:54:16;18.10;99.90
26803;DHT22;14378;51.796;5.808;2023-08-31T08:56:18;18.30;99.90
26803;DHT22;14378;51.796;5.808;2023-08-31T08:58:18;18.50;99.90
26803;DHT22;14378;51.796;5.808;2023-08-31T09:00:22;18.60;99.90
26803;DHT22;14378;51.796;5.808;2023-08-31T09:02:25;18.70;99.90
26803;DHT22;14378;51.796;5.808;2023-08-31T09:04:31;18.90;99.90
26803;DHT22;14378;51.796;5.808;2023-08-31T09:06:33;19.00;99.90
26803;DHT22;14378;51.796;5.808;2023-08-31T09:08:35;19.20;99.90
26803;DHT22;14378;51.796;5.808;2023-08-31T09:10:40;19.40;99.90
26803;DHT22;14378;51.796;5.808;2023-08-31T09:12:43;19.50;99.90
26803;DHT22;14378;51.796;5.808;2023-08-31T09:15:00;19.60;99.90
26803;DHT22;14378;51.796;5.808;2023-08-31T09:17:01;19.60;99.90
26803;DHT22;14378;51.796;5.808;2023-08-31T09:19:18;19.70;99.90
26803;DHT22;14378;51.796;5.808;2023-08-31T09:21:19;19.80;99.90
26803;DHT22;14378;51.796;5.808;2023-08-31T09:23:20;19.70;99.90
26803;DHT22;14378;51.796;5.808;2023-08-31T09:25:23;19.60;99.90
26803;DHT22;14378;51.796;5.808;2023-08-31T09:27:23;19.60;99.90
26803;DHT22;14378;51.796;5.808;2023-08-31T09:29:27;19.50;99.90
26803;DHT22;14378;51.796;5.808;2023-08-31T09:31:29;19.50;99.90
26803;DHT22;14378;51.796;5.808;2023-08-31T09:33:31;19.50;99.90
26803;DHT22;14378;51.796;5.808;2023-08-31T09:35:32;19.50;99.90
26803;DHT22;14378;51.796;5.808;2023-08-31T09:37:33;19.50;99.90
26803;DHT22;14378;51.796;5.808;2023-08-31T09:39:41;19.50;99.90
26803;DHT22;14378;51.796;5.808;2023-08-31T09:41:51;19.50;99.90
26803;DHT22;14378;51.796;5.808;2023-08-31T09:43:53;19.50;99.90
26803;DHT22;14378;51.796;5.808;2023-08-31T09:45:57;19.50;99.90
26803;DHT22;14378;51.796;5.808;2023-08-31T09:48:03;19.40;99.90
26803;DHT22;14378;51.796;5.808;2023-08-31T09:50:05;19.30;99.90
26803;DHT22;14378;51.796;5.808;2023-08-31T09:52:07;19.50;99.90
26803;DHT22;14378;51.796;5.808;2023-08-31T09:54:12;19.60;99.90
26803;DHT22;14378;51.796;5.808;2023-08-31T09:56:20;19.60;99.90
26803;DHT22;14378;51.796;5.808;2023-08-31T09:58:21;19.60;99.90
26803;DHT22;14378;51.796;5.808;2023-08-31T10:00:23;19.50;99.90
26803;DHT22;14378;51.796;5.808;2023-08-31T10:02:25;19.50;99.90
26803;DHT22;14378;51.796;5.808;2023-08-31T10:04:29;19.60;99.90
26803;DHT22;14378;51.796;5.808;2023-08-31T10:06:31;19.70;99.90
26803;DHT22;14378;51.796;5.808;2023-08-31T10:08:33;20.00;99.90
26803;DHT22;14378;51.796;5.808;2023-08-31T10:10:38;20.10;99.90
26803;DHT22;14378;51.796;5.808;2023-08-31T10:12:41;20.00;99.90
26803;DHT22;14378;51.796;5.808;2023-08-31T10:14:44;19.80;99.90
26803;DHT22;14378;51.796;5.808;2023-08-31T10:16:53;19.80;99.90
26803;DHT22;14378;51.796;5.808;2023-08-31T10:18:56;20.00;99.90
26803;DHT22;14378;51.796;5.808;2023-08-31T10:21:03;20.20;99.90
26803;DHT22;14378;51.796;5.808;2023-08-31T10:23:09;20.50;99.90
26803;DHT22;14378;51.796;5.808;2023-08-31T10:25:10;20.60;99.90
26803;DHT22;14378;51.796;5.808;2023-08-31T10:27:27;20.80;99.90
26803;DHT22;14378;51.796;5.808;2023-08-31T10:29:28;21.00;99.90
26803;DHT22;14378;51.796;5.808;2023-08-31T10:31:32;21.30;99.90
26803;DHT22;14378;51.796;5.808;2023-08-31T10:33:47;21.60;99.90
26803;DHT22;14378;51.796;5.808;2023-08-31T10:35:55;21.70;99.90
26803;DHT22;14378;51.796;5.808;2023-08-31T10:38:13;21.80;99.90
26803;DHT22;14378;51.796;5.808;2023-08-31T10:40:15;21.80;99.90
26803;DHT22;14378;51.796;5.808;2023-08-31T10:42:15;21.80;99.90
26803;DHT22;14378;51.796;5.808;2023-08-31T10:44:21;21.80;99.90
26803;DHT22;14378;51.796;5.808;2023-08-31T10:48:28;21.90;99.90
26803;DHT22;14378;51.796;5.808;2023-08-31T10:50:29;21.80;99.90
26803;DHT22;14378;51.796;5.808;2023-08-31T10:52:44;21.60;99.90
26803;DHT22;14378;51.796;5.808;2023-08-31T10:54:55;21.40;99.90
26803;DHT22;14378;51.796;5.808;2023-08-31T10:59:07;21.10;99.90
26803;DHT22;14378;51.796;5.808;2023-08-31T11:01:08;21.10;99.90
26803;DHT22;14378;51.796;5.808;2023-08-31T11:03:12;21.00;99.90
26803;DHT22;14378;51.796;5.808;2023-08-31T11:05:19;21.20;99.90
26803;DHT22;14378;51.796;5.808;2023-08-31T11:07:24;21.30;99.90
26803;DHT22;14378;51.796;5.808;2023-08-31T11:09:24;21.40;99.90
26803;DHT22;14378;51.796;5.808;2023-08-31T11:11:25;21.50;99.90
26803;DHT22;14378;51.796;5.808;2023-08-31T11:13:26;21.50;99.90
26803;DHT22;14378;51.796;5.808;2023-08-31T11:15:32;21.50;99.90
26803;DHT22;14378;51.796;5.808;2023-08-31T11:17:33;21.50;99.90
26803;DHT22;14378;51.796;5.808;2023-08-31T11:19:35;21.40;99.90
26803;DHT22;14378;51.796;5.808;2023-08-31T11:21:37;21.40;99.90
26803;DHT22;14378;51.796;5.808;2023-08-31T11:23:38;21.20;99.90
26803;DHT22;14378;51.796;5.808;2023-08-31T11:25:39;20.80;99.90
26803;DHT22;14378;51.796;5.808;2023-08-31T11:27:53;20.50;99.90
26803;DHT22;14378;51.796;5.808;2023-08-31T11:29:54;20.20;99.90
26803;DHT22;14378;51.796;5.808;2023-08-31T11:32:02;20.00;99.90
26803;DHT22;14378;51.796;5.808;2023-08-31T11:34:04;19.70;99.90
26803;DHT22;14378;51.796;5.808;2023-08-31T11:36:05;19.60;99.90
26803;DHT22;14378;51.796;5.808;2023-08-31T11:38:06;19.30;99.90
26803;DHT22;14378;51.796;5.808;2023-08-31T11:40:08;19.00;99.90
26803;DHT22;14378;51.796;5.808;2023-08-31T11:42:09;18.90;99.90
26803;DHT22;14378;51.796;5.808;2023-08-31T11:44:14;18.70;99.90
26803;DHT22;14378;51.796;5.808;2023-08-31T11:46:18;18.60;99.90
26803;DHT22;14378;51.796;5.808;2023-08-31T11:48:25;18.40;99.90
26803;DHT22;14378;51.796;5.808;2023-08-31T11:50:26;18.30;99.90
26803;DHT22;14378;51.796;5.808;2023-08-31T11:52:31;18.20;99.90
26803;DHT22;14378;51.796;5.808;2023-08-31T11:54:32;18.10;99.90
26803;DHT22;14378;51.796;5.808;2023-08-31T11:56:40;18.00;99.90
26803;DHT22;14378;51.796;5.808;2023-08-31T11:58:42;18.10;99.90
26803;DHT22;14378;51.796;5.808;2023-08-31T12:00:43;18.10;99.90
26803;DHT22;14378;51.796;5.808;2023-08-31T12:03:08;18.10;99.90
26803;DHT22;14378;51.796;5.808;2023-08-31T12:05:09;18.10;99.90
26803;DHT22;14378;51.796;5.808;2023-08-31T12:07:10;18.10;99.90
26803;DHT22;14378;51.796;5.808;2023-08-31T12:09:11;18.10;99.90
26803;DHT22;14378;51.796;5.808;2023-08-31T12:11:14;18.10;99.90
26803;DHT22;14378;51.796;5.808;2023-08-31T12:13:15;18.10;99.90
26803;DHT22;14378;51.796;5.808;2023-08-31T12:15:16;18.10;99.90
26803;DHT22;14378;51.796;5.808;2023-08-31T12:17:18;18.10;99.90
26803;DHT22;14378;51.796;5.808;2023-08-31T12:19:19;18.10;99.90
26803;DHT22;14378;51.796;5.808;2023-08-31T12:21:26;18.20;99.90
26803;DHT22;14378;51.796;5.808;2023-08-31T12:23:27;18.20;99.90
26803;DHT22;14378;51.796;5.808;2023-08-31T12:25:28;18.20;99.90
26803;DHT22;14378;51.796;5.808;2023-08-31T12:27:29;18.40;99.90
26803;DHT22;14378;51.796;5.808;2023-08-31T12:29:31;18.60;99.90
26803;DHT22;14378;51.796;5.808;2023-08-31T12:31:32;18.80;99.90
26803;DHT22;14378;51.796;5.808;2023-08-31T12:33:33;18.90;99.90
26803;DHT22;14378;51.796;5.808;2023-08-31T12:35:35;19.10;99.90
26803;DHT22;14378;51.796;5.808;2023-08-31T12:37:36;19.10;99.90
26803;DHT22;14378;51.796;5.808;2023-08-31T12:39:36;19.10;99.90
26803;DHT22;14378;51.796;5.808;2023-08-31T12:41:39;19.20;99.90
26803;DHT22;14378;51.796;5.808;2023-08-31T12:43:40;19.30;99.90
26803;DHT22;14378;51.796;5.808;2023-08-31T12:45:41;19.20;99.90
26803;DHT22;14378;51.796;5.808;2023-08-31T12:47:41;19.30;99.90
26803;DHT22;14378;51.796;5.808;2023-08-31T12:49:42;19.30;99.90
26803;DHT22;14378;51.796;5.808;2023-08-31T12:51:44;19.20;99.90
26803;DHT22;14378;51.796;5.808;2023-08-31T12:53:53;19.10;99.90
26803;DHT22;14378;51.796;5.808;2023-08-31T12:55:54;19.00;99.90
26803;DHT22;14378;51.796;5.808;2023-08-31T12:57:55;19.10;99.90
26803;DHT22;14378;51.796;5.808;2023-08-31T12:59:56;19.30;99.90
26803;DHT22;14378;51.796;5.808;2023-08-31T13:01:57;19.50;99.90
26803;DHT22;14378;51.796;5.808;2023-08-31T13:03:58;19.70;99.90
26803;DHT22;14378;51.796;5.808;2023-08-31T13:05:59;20.00;99.90
26803;DHT22;14378;51.796;5.808;2023-08-31T13:08:08;20.10;99.90
26803;DHT22;14378;51.796;5.808;2023-08-31T13:10:09;20.30;99.90
26803;DHT22;14378;51.796;5.808;2023-08-31T13:12:15;20.60;99.90